createdAt,value
2022-07-31T00:06:46.422Z,101607.31
2022-07-31T00:17:08.014Z,101583.28
2022-07-31T00:27:29.652Z,101571.47
2022-07-31T00:37:54.809Z,101571.34
2022-07-31T00:48:23.892Z,101559.63
2022-07-31T00:58:45.432Z,101547.13
2022-07-31T01:09:07.011Z,101554.34
2022-07-31T01:19:37.886Z,101554.19
2022-07-31T01:30:03.550Z,101552.81
2022-07-31T01:40:35.592Z,101555.47
2022-07-31T01:50:58.906Z,101553.94
2022-07-31T02:01:27.023Z,101547.94
2022-07-31T02:11:54.440Z,101535.28
2022-07-31T02:22:16.836Z,101526.88
2022-07-31T02:32:39.327Z,101523.97
2022-07-31T02:43:01.100Z,101516.47
2022-07-31T02:53:24.758Z,101504.19
2022-07-31T03:03:46.290Z,101496.72
2022-07-31T03:14:10.568Z,101507.69
2022-07-31T03:24:32.223Z,101490.25
2022-07-31T03:34:56.959Z,101490.13
2022-07-31T03:45:20.888Z,101490.56
2022-07-31T03:55:44.055Z,101488.72
2022-07-31T04:06:05.635Z,101493.44
2022-07-31T04:16:27.179Z,101497.75
2022-07-31T04:26:50.510Z,101481.00
2022-07-31T04:37:12.093Z,101458.47
2022-07-31T04:47:33.588Z,101447.25
2022-07-31T04:57:55.118Z,101446.03
2022-07-31T05:08:16.677Z,101468.84
2022-07-31T05:18:38.309Z,101473.16
2022-07-31T05:29:00.188Z,101462.59
2022-07-31T05:39:21.756Z,101457.44
2022-07-31T05:49:43.397Z,101457.53
2022-07-31T06:00:05.690Z,101444.31
2022-07-31T06:10:28.285Z,101434.50
2022-07-31T06:20:49.893Z,101434.63
2022-07-31T06:31:21.664Z,101437.59
2022-07-31T06:41:49.294Z,101427.09
2022-07-31T06:52:10.924Z,101412.34
2022-07-31T07:02:32.475Z,101407.81
2022-07-31T07:12:54.326Z,101401.97
2022-07-31T07:23:15.935Z,101392.88
2022-07-31T07:33:41.263Z,101386.03
2022-07-31T07:44:05.135Z,101384.47
2022-07-31T07:54:30.027Z,101374.84
2022-07-31T08:04:52.016Z,101356.16
2022-07-31T08:15:13.568Z,101341.09
2022-07-31T08:25:35.104Z,101334.66
2022-07-31T08:35:59.056Z,101341.63
2022-07-31T08:46:22.138Z,101335.69
2022-07-31T08:56:44.015Z,101326.06
2022-07-31T09:07:06.210Z,101318.09
2022-07-31T09:17:53.711Z,101311.81
2022-07-31T09:28:15.917Z,101310.38
2022-07-31T09:38:43.431Z,101306.47
2022-07-31T09:49:05.196Z,101302.59
2022-07-31T09:59:26.865Z,101298.25
2022-07-31T10:09:48.727Z,101292.72
2022-07-31T10:20:17.384Z,101287.75
2022-07-31T10:30:39.119Z,101280.53
2022-07-31T10:41:17.345Z,101268.84
2022-07-31T10:51:50.107Z,101248.22
2022-07-31T11:02:11.804Z,101258.22
2022-07-31T11:12:33.444Z,101255.91
2022-07-31T11:23:06.422Z,101253.03
2022-07-31T11:33:42.170Z,101252.81
2022-07-31T11:44:04.973Z,101259.69
2022-07-31T11:54:26.744Z,101263.94
2022-07-31T12:04:49.227Z,101263.41
2022-07-31T12:15:18.863Z,101267.06
2022-07-31T12:25:42.230Z,101264.16
2022-07-31T12:36:12.309Z,101262.16
2022-07-31T12:46:36.749Z,101272.03
2022-07-31T12:56:58.279Z,101265.31
2022-07-31T13:07:19.892Z,101247.22
2022-07-31T13:17:47.792Z,101222.59
2022-07-31T13:28:12.373Z,101212.47
2022-07-31T13:38:34.059Z,101202.97
2022-07-31T13:48:59.118Z,101208.13
2022-07-31T13:59:21.535Z,101194.13
2022-07-31T14:09:51.473Z,101191.19
2022-07-31T14:20:17.183Z,101194.53
2022-07-31T14:30:45.592Z,101196.78
2022-07-31T14:41:08.037Z,101191.41
2022-07-31T14:51:29.628Z,101193.00
2022-07-31T15:01:51.150Z,101189.44
2022-07-31T15:12:16.762Z,101178.66
2022-07-31T15:22:38.374Z,101167.69
2022-07-31T15:33:02.172Z,101163.97
2022-07-31T15:43:23.714Z,101152.53
2022-07-31T15:53:45.211Z,101133.63
2022-07-31T16:04:16.609Z,101131.91
2022-07-31T16:14:38.579Z,101110.38
2022-07-31T16:25:00.331Z,101110.38
2022-07-31T16:35:22.553Z,101112.47
2022-07-31T16:45:44.137Z,101099.28
2022-07-31T16:56:06.462Z,101084.69
2022-07-31T17:06:36.346Z,101082.50
2022-07-31T17:16:59.276Z,101076.25
2022-07-31T17:27:22.511Z,101071.00
2022-07-31T17:37:45.178Z,101064.13
2022-07-31T17:48:07.813Z,101067.34
2022-07-31T17:58:29.370Z,101062.06
2022-07-31T18:08:51.202Z,101051.84
2022-07-31T18:19:13.614Z,101060.72
2022-07-31T18:29:35.176Z,101064.94
2022-07-31T18:39:59.581Z,101067.66
2022-07-31T18:51:00.587Z,101062.75
2022-07-31T19:01:03.496Z,101066.41
2022-07-31T19:11:25.148Z,101058.81
2022-07-31T19:21:46.724Z,101068.97
2022-07-31T19:32:08.613Z,101092.28
2022-07-31T19:42:30.317Z,101094.19
2022-07-31T19:52:52.626Z,101099.94
2022-07-31T20:03:14.308Z,101112.81
2022-07-31T20:13:38.526Z,101109.50
2022-07-31T20:24:01.421Z,101110.72
2022-07-31T20:34:23.632Z,101112.78
2022-07-31T20:44:45.321Z,101101.63
2022-07-31T20:55:07.070Z,101104.38
2022-07-31T21:05:30.646Z,101102.88
2022-07-31T21:15:53.198Z,101107.78
2022-07-31T21:26:15.582Z,101098.13
2022-07-31T21:36:37.430Z,101108.47
2022-07-31T21:47:01.478Z,101115.44
2022-07-31T21:57:25.236Z,101124.81
2022-07-31T22:07:49.608Z,101125.47
2022-07-31T22:18:11.374Z,101135.75
2022-07-31T22:28:33.070Z,101139.38
2022-07-31T22:38:55.042Z,101151.72
2022-07-31T22:49:18.106Z,101150.16
2022-07-31T22:59:40.084Z,101157.53
2022-07-31T23:10:02.414Z,101164.91
2022-07-31T23:20:23.948Z,101168.72
2022-07-31T23:30:45.494Z,101169.88
2022-07-31T23:41:07.457Z,101183.13
2022-07-31T23:51:29.054Z,101183.84
